sensor_id;sensor_type;location;lat;lon;timestamp;temperature;humidity
52725;DHT22;38621;52.830;6.914;2024-03-06T00:01:51;5.40;99.90
52725;DHT22;38621;52.830;6.914;2024-03-06T00:04:16;5.40;99.90
52725;DHT22;38621;52.830;6.914;2024-03-06T00:06:42;5.50;99.90
52725;DHT22;38621;52.830;6.914;2024-03-06T00:09:08;5.40;99.90
52725;DHT22;38621;52.830;6.914;2024-03-06T00:11:34;5.40;99.90
52725;DHT22;38621;52.830;6.914;2024-03-06T00:14:02;5.30;99.90
52725;DHT22;38621;52.830;6.914;2024-03-06T00:16:28;5.30;99.90
52725;DHT22;38621;52.830;6.914;2024-03-06T00:18:54;5.30;99.90
52725;DHT22;38621;52.830;6.914;2024-03-06T00:21:20;5.30;99.90
52725;DHT22;38621;52.830;6.914;2024-03-06T00:23:47;5.30;99.90
52725;DHT22;38621;52.830;6.914;2024-03-06T00:26:13;5.30;99.90
52725;DHT22;38621;52.830;6.914;2024-03-06T00:28:39;5.30;99.90
52725;DHT22;38621;52.830;6.914;2024-03-06T00:31:27;5.30;99.90
52725;DHT22;38621;52.830;6.914;2024-03-06T00:34:05;5.30;99.90
52725;DHT22;38621;52.830;6.914;2024-03-06T00:36:32;5.30;99.90
52725;DHT22;38621;52.830;6.914;2024-03-06T00:39:09;5.30;99.90
52725;DHT22;38621;52.830;6.914;2024-03-06T00:41:35;5.20;99.90
52725;DHT22;38621;52.830;6.914;2024-03-06T00:44:01;5.20;99.90
52725;DHT22;38621;52.830;6.914;2024-03-06T00:46:27;5.20;99.90
52725;DHT22;38621;52.830;6.914;2024-03-06T00:48:53;5.20;99.90
52725;DHT22;38621;52.830;6.914;2024-03-06T00:51:19;5.20;99.90
52725;DHT22;38621;52.830;6.914;2024-03-06T00:53:45;5.20;99.90
52725;DHT22;38621;52.830;6.914;2024-03-06T00:56:11;5.30;99.90
52725;DHT22;38621;52.830;6.914;2024-03-06T00:58:36;5.50;99.90
52725;DHT22;38621;52.830;6.914;2024-03-06T01:01:02;5.20;99.90
52725;DHT22;38621;52.830;6.914;2024-03-06T01:03:28;5.20;99.90
52725;DHT22;38621;52.830;6.914;2024-03-06T01:05:54;5.20;99.90
52725;DHT22;38621;52.830;6.914;2024-03-06T01:08:21;5.10;99.90
52725;DHT22;38621;52.830;6.914;2024-03-06T01:10:51;5.20;99.90
52725;DHT22;38621;52.830;6.914;2024-03-06T01:13:18;5.20;99.90
52725;DHT22;38621;52.830;6.914;2024-03-06T01:15:44;5.20;99.90
52725;DHT22;38621;52.830;6.914;2024-03-06T01:18:13;5.20;99.90
52725;DHT22;38621;52.830;6.914;2024-03-06T01:20:53;5.20;99.90
52725;DHT22;38621;52.830;6.914;2024-03-06T01:23:18;5.10;99.90
52725;DHT22;38621;52.830;6.914;2024-03-06T01:25:44;5.40;99.90
52725;DHT22;38621;52.830;6.914;2024-03-06T01:28:11;5.10;99.90
52725;DHT22;38621;52.830;6.914;2024-03-06T01:30:36;5.10;99.90
52725;DHT22;38621;52.830;6.914;2024-03-06T01:33:02;5.10;99.90
52725;DHT22;38621;52.830;6.914;2024-03-06T01:35:28;5.10;99.90
52725;DHT22;38621;52.830;6.914;2024-03-06T01:37:54;5.20;99.90
52725;DHT22;38621;52.830;6.914;2024-03-06T01:40:19;5.20;99.90
52725;DHT22;38621;52.830;6.914;2024-03-06T01:43:05;5.20;99.90
52725;DHT22;38621;52.830;6.914;2024-03-06T01:45:31;5.10;99.90
52725;DHT22;38621;52.830;6.914;2024-03-06T01:48:00;5.20;99.90
52725;DHT22;38621;52.830;6.914;2024-03-06T01:50:32;5.10;99.90
52725;DHT22;38621;52.830;6.914;2024-03-06T01:53:01;5.10;99.90
52725;DHT22;38621;52.830;6.914;2024-03-06T01:55:27;5.10;99.90
52725;DHT22;38621;52.830;6.914;2024-03-06T01:57:53;5.40;99.90
52725;DHT22;38621;52.830;6.914;2024-03-06T02:00:20;5.10;99.90
52725;DHT22;38621;52.830;6.914;2024-03-06T02:02:48;5.10;99.90
52725;DHT22;38621;52.830;6.914;2024-03-06T02:05:14;5.10;99.90
52725;DHT22;38621;52.830;6.914;2024-03-06T02:07:43;5.10;99.90
52725;DHT22;38621;52.830;6.914;2024-03-06T02:10:10;5.10;99.90
52725;DHT22;38621;52.830;6.914;2024-03-06T02:12:37;5.10;99.90
52725;DHT22;38621;52.830;6.914;2024-03-06T02:15:04;5.40;99.90
52725;DHT22;38621;52.830;6.914;2024-03-06T02:17:29;5.10;99.90
52725;DHT22;38621;52.830;6.914;2024-03-06T02:19:58;5.10;99.90
52725;DHT22;38621;52.830;6.914;2024-03-06T02:22:31;5.10;99.90
52725;DHT22;38621;52.830;6.914;2024-03-06T02:24:57;5.10;99.90
52725;DHT22;38621;52.830;6.914;2024-03-06T02:27:23;5.10;99.90
52725;DHT22;38621;52.830;6.914;2024-03-06T02:29:49;5.20;99.90
52725;DHT22;38621;52.830;6.914;2024-03-06T02:32:14;5.10;99.90
52725;DHT22;38621;52.830;6.914;2024-03-06T02:34:51;5.10;99.90
52725;DHT22;38621;52.830;6.914;2024-03-06T02:37:17;5.10;99.90
52725;DHT22;38621;52.830;6.914;2024-03-06T02:39:43;5.10;99.90
52725;DHT22;38621;52.830;6.914;2024-03-06T02:42:09;5.10;99.90
52725;DHT22;38621;52.830;6.914;2024-03-06T02:44:35;5.10;99.90
52725;DHT22;38621;52.830;6.914;2024-03-06T02:47:01;5.10;99.90
52725;DHT22;38621;52.830;6.914;2024-03-06T02:49:26;5.40;99.90
52725;DHT22;38621;52.830;6.914;2024-03-06T02:51:53;5.10;99.90
52725;DHT22;38621;52.830;6.914;2024-03-06T02:54:19;5.10;99.90
52725;DHT22;38621;52.830;6.914;2024-03-06T02:56:45;5.10;99.90
52725;DHT22;38621;52.830;6.914;2024-03-06T02:59:11;5.10;99.90
52725;DHT22;38621;52.830;6.914;2024-03-06T03:01:37;5.00;99.90
52725;DHT22;38621;52.830;6.914;2024-03-06T03:04:04;5.10;99.90
52725;DHT22;38621;52.830;6.914;2024-03-06T03:06:29;5.10;99.90
52725;DHT22;38621;52.830;6.914;2024-03-06T03:08:55;5.10;99.90
52725;DHT22;38621;52.830;6.914;2024-03-06T03:11:23;5.10;99.90
52725;DHT22;38621;52.830;6.914;2024-03-06T03:13:50;5.20;99.90
52725;DHT22;38621;52.830;6.914;2024-03-06T03:16:19;5.10;99.90
52725;DHT22;38621;52.830;6.914;2024-03-06T03:18:47;5.20;99.90
52725;DHT22;38621;52.830;6.914;2024-03-06T03:21:16;5.60;99.90
52725;DHT22;38621;52.830;6.914;2024-03-06T03:23:42;5.10;99.90
52725;DHT22;38621;52.830;6.914;2024-03-06T03:26:08;5.10;99.90
52725;DHT22;38621;52.830;6.914;2024-03-06T03:28:40;5.10;99.90
52725;DHT22;38621;52.830;6.914;2024-03-06T03:31:09;5.10;99.90
52725;DHT22;38621;52.830;6.914;2024-03-06T03:33:39;5.10;99.90
52725;DHT22;38621;52.830;6.914;2024-03-06T03:36:05;5.20;99.90
52725;DHT22;38621;52.830;6.914;2024-03-06T03:38:38;5.10;99.90
52725;DHT22;38621;52.830;6.914;2024-03-06T03:41:10;5.10;99.90
52725;DHT22;38621;52.830;6.914;2024-03-06T03:43:39;5.10;99.90
52725;DHT22;38621;52.830;6.914;2024-03-06T03:46:04;5.10;99.90
52725;DHT22;38621;52.830;6.914;2024-03-06T03:48:32;5.10;99.90
52725;DHT22;38621;52.830;6.914;2024-03-06T03:51:01;5.20;99.90
52725;DHT22;38621;52.830;6.914;2024-03-06T03:53:30;5.10;99.90
52725;DHT22;38621;52.830;6.914;2024-03-06T03:55:55;5.10;99.90
52725;DHT22;38621;52.830;6.914;2024-03-06T03:58:21;5.20;99.90
52725;DHT22;38621;52.830;6.914;2024-03-06T04:00:47;5.10;99.90
52725;DHT22;38621;52.830;6.914;2024-03-06T04:03:12;5.10;99.90
52725;DHT22;38621;52.830;6.914;2024-03-06T04:05:38;5.30;99.90
52725;DHT22;38621;52.830;6.914;2024-03-06T04:08:04;5.10;99.90
52725;DHT22;38621;52.830;6.914;2024-03-06T04:10:32;5.10;99.90
52725;DHT22;38621;52.830;6.914;2024-03-06T04:12:58;5.20;99.90
52725;DHT22;38621;52.830;6.914;2024-03-06T04:15:25;5.10;99.90
52725;DHT22;38621;52.830;6.914;2024-03-06T04:17:51;5.10;99.90
52725;DHT22;38621;52.830;6.914;2024-03-06T04:20:17;5.10;99.90
52725;DHT22;38621;52.830;6.914;2024-03-06T04:22:44;5.10;99.90
52725;DHT22;38621;52.830;6.914;2024-03-06T04:25:11;5.10;99.90
52725;DHT22;38621;52.830;6.914;2024-03-06T04:27:37;5.10;99.90
52725;DHT22;38621;52.830;6.914;2024-03-06T04:30:05;5.60;99.90
52725;DHT22;38621;52.830;6.914;2024-03-06T04:32:31;5.00;99.90
52725;DHT22;38621;52.830;6.914;2024-03-06T04:34:57;5.10;99.90
52725;DHT22;38621;52.830;6.914;2024-03-06T04:37:32;5.00;99.90
52725;DHT22;38621;52.830;6.914;2024-03-06T04:39:58;5.00;99.90
52725;DHT22;38621;52.830;6.914;2024-03-06T04:42:24;5.00;99.90
52725;DHT22;38621;52.830;6.914;2024-03-06T04:44:53;5.00;99.90
52725;DHT22;38621;52.830;6.914;2024-03-06T04:47:18;5.00;99.90
52725;DHT22;38621;52.830;6.914;2024-03-06T04:49:44;5.10;99.90
52725;DHT22;38621;52.830;6.914;2024-03-06T04:52:10;5.00;99.90
52725;DHT22;38621;52.830;6.914;2024-03-06T04:54:36;5.00;99.90
52725;DHT22;38621;52.830;6.914;2024-03-06T04:57:01;4.90;99.90
52725;DHT22;38621;52.830;6.914;2024-03-06T04:59:28;5.00;99.90
52725;DHT22;38621;52.830;6.914;2024-03-06T05:01:53;5.00;99.90
52725;DHT22;38621;52.830;6.914;2024-03-06T05:04:19;5.00;99.90
52725;DHT22;38621;52.830;6.914;2024-03-06T05:06:45;5.00;99.90
52725;DHT22;38621;52.830;6.914;2024-03-06T05:09:11;4.90;99.90
52725;DHT22;38621;52.830;6.914;2024-03-06T05:11:40;4.90;99.90
52725;DHT22;38621;52.830;6.914;2024-03-06T05:14:05;4.90;99.90
52725;DHT22;38621;52.830;6.914;2024-03-06T05:16:31;5.00;99.90
52725;DHT22;38621;52.830;6.914;2024-03-06T05:18:57;4.90;99.90
52725;DHT22;38621;52.830;6.914;2024-03-06T05:21:22;5.00;99.90
52725;DHT22;38621;52.830;6.914;2024-03-06T05:23:48;5.00;99.90
52725;DHT22;38621;52.830;6.914;2024-03-06T05:26:15;5.00;99.90
52725;DHT22;38621;52.830;6.914;2024-03-06T05:28:41;5.00;99.90
52725;DHT22;38621;52.830;6.914;2024-03-06T05:31:20;5.00;99.90
52725;DHT22;38621;52.830;6.914;2024-03-06T05:33:51;4.90;99.90
52725;DHT22;38621;52.830;6.914;2024-03-06T05:36:17;4.90;99.90
52725;DHT22;38621;52.830;6.914;2024-03-06T05:38:45;4.90;99.90
52725;DHT22;38621;52.830;6.914;2024-03-06T05:41:13;5.20;99.90
52725;DHT22;38621;52.830;6.914;2024-03-06T05:43:39;5.00;99.90
52725;DHT22;38621;52.830;6.914;2024-03-06T05:46:06;5.00;99.90
52725;DHT22;38621;52.830;6.914;2024-03-06T05:48:32;5.00;99.90
52725;DHT22;38621;52.830;6.914;2024-03-06T05:51:11;5.10;99.90
52725;DHT22;38621;52.830;6.914;2024-03-06T05:53:37;5.10;99.90
52725;DHT22;38621;52.830;6.914;2024-03-06T05:56:08;5.00;99.90
52725;DHT22;38621;52.830;6.914;2024-03-06T05:58:34;5.00;99.90
52725;DHT22;38621;52.830;6.914;2024-03-06T06:01:00;5.00;99.90
52725;DHT22;38621;52.830;6.914;2024-03-06T06:03:35;5.00;99.90
52725;DHT22;38621;52.830;6.914;2024-03-06T06:06:07;5.00;99.90
52725;DHT22;38621;52.830;6.914;2024-03-06T06:08:34;5.00;99.90
52725;DHT22;38621;52.830;6.914;2024-03-06T06:11:01;5.00;99.90
52725;DHT22;38621;52.830;6.914;2024-03-06T06:13:28;5.00;99.90
52725;DHT22;38621;52.830;6.914;2024-03-06T06:15:57;4.90;99.90
52725;DHT22;38621;52.830;6.914;2024-03-06T06:18:23;5.00;99.90
52725;DHT22;38621;52.830;6.914;2024-03-06T06:20:48;5.00;99.90
52725;DHT22;38621;52.830;6.914;2024-03-06T06:23:14;5.00;99.90
52725;DHT22;38621;52.830;6.914;2024-03-06T06:25:43;5.00;99.90
52725;DHT22;38621;52.830;6.914;2024-03-06T06:28:08;5.20;99.90
52725;DHT22;38621;52.830;6.914;2024-03-06T06:30:36;5.00;99.90
52725;DHT22;38621;52.830;6.914;2024-03-06T06:33:01;4.90;99.90
52725;DHT22;38621;52.830;6.914;2024-03-06T06:35:27;5.00;99.90
52725;DHT22;38621;52.830;6.914;2024-03-06T06:37:53;5.00;99.90
52725;DHT22;38621;52.830;6.914;2024-03-06T06:40:19;5.00;99.90
52725;DHT22;38621;52.830;6.914;2024-03-06T06:42:45;5.00;99.90
52725;DHT22;38621;52.830;6.914;2024-03-06T06:45:15;5.00;99.90
52725;DHT22;38621;52.830;6.914;2024-03-06T06:47:42;5.00;99.90
52725;DHT22;38621;52.830;6.914;2024-03-06T06:50:08;5.10;99.90
52725;DHT22;38621;52.830;6.914;2024-03-06T06:52:35;5.00;99.90
52725;DHT22;38621;52.830;6.914;2024-03-06T06:55:01;5.00;99.90
52725;DHT22;38621;52.830;6.914;2024-03-06T06:57:27;5.00;99.90
52725;DHT22;38621;52.830;6.914;2024-03-06T06:59:52;5.00;99.90
52725;DHT22;38621;52.830;6.914;2024-03-06T07:02:18;5.00;99.90
52725;DHT22;38621;52.830;6.914;2024-03-06T07:04:45;5.00;99.90
52725;DHT22;38621;52.830;6.914;2024-03-06T07:07:11;5.10;99.90
52725;DHT22;38621;52.830;6.914;2024-03-06T07:09:36;5.10;99.90
52725;DHT22;38621;52.830;6.914;2024-03-06T07:12:02;5.30;99.90
52725;DHT22;38621;52.830;6.914;2024-03-06T07:14:28;5.10;99.90
52725;DHT22;38621;52.830;6.914;2024-03-06T07:16:54;5.10;99.90
52725;DHT22;38621;52.830;6.914;2024-03-06T07:19:19;5.20;99.90
52725;DHT22;38621;52.830;6.914;2024-03-06T07:21:45;5.10;99.90
52725;DHT22;38621;52.830;6.914;2024-03-06T07:24:11;5.10;99.90
52725;DHT22;38621;52.830;6.914;2024-03-06T07:26:37;5.10;99.90
52725;DHT22;38621;52.830;6.914;2024-03-06T07:29:02;5.20;99.90
52725;DHT22;38621;52.830;6.914;2024-03-06T07:31:28;5.20;99.90
52725;DHT22;38621;52.830;6.914;2024-03-06T07:33:54;5.20;99.90
52725;DHT22;38621;52.830;6.914;2024-03-06T07:36:21;5.20;99.90
52725;DHT22;38621;52.830;6.914;2024-03-06T07:38:47;5.20;99.90
52725;DHT22;38621;52.830;6.914;2024-03-06T07:41:13;5.20;99.90
52725;DHT22;38621;52.830;6.914;2024-03-06T07:43:38;5.20;99.90
52725;DHT22;38621;52.830;6.914;2024-03-06T07:46:04;5.20;99.90
52725;DHT22;38621;52.830;6.914;2024-03-06T07:48:42;5.30;99.90
52725;DHT22;38621;52.830;6.914;2024-03-06T07:51:09;5.40;99.90
52725;DHT22;38621;52.830;6.914;2024-03-06T07:53:35;5.50;99.90
52725;DHT22;38621;52.830;6.914;2024-03-06T07:56:02;5.30;99.90
52725;DHT22;38621;52.830;6.914;2024-03-06T07:58:28;5.50;99.90
52725;DHT22;38621;52.830;6.914;2024-03-06T08:00:54;5.40;99.90
52725;DHT22;38621;52.830;6.914;2024-03-06T08:03:22;5.40;99.90
52725;DHT22;38621;52.830;6.914;2024-03-06T08:05:51;5.40;99.90
52725;DHT22;38621;52.830;6.914;2024-03-06T08:08:18;5.30;99.90
52725;DHT22;38621;52.830;6.914;2024-03-06T08:10:44;5.40;99.90
52725;DHT22;38621;52.830;6.914;2024-03-06T08:13:10;5.40;99.90
52725;DHT22;38621;52.830;6.914;2024-03-06T08:15:36;5.50;99.90
52725;DHT22;38621;52.830;6.914;2024-03-06T08:18:02;5.70;99.90
52725;DHT22;38621;52.830;6.914;2024-03-06T08:20:29;5.50;99.90
52725;DHT22;38621;52.830;6.914;2024-03-06T08:22:56;5.50;99.90
52725;DHT22;38621;52.830;6.914;2024-03-06T08:25:23;6.00;99.90
52725;DHT22;38621;52.830;6.914;2024-03-06T08:27:52;5.40;99.90
52725;DHT22;38621;52.830;6.914;2024-03-06T08:30:18;5.60;99.90
52725;DHT22;38621;52.830;6.914;2024-03-06T08:32:43;5.60;99.90
52725;DHT22;38621;52.830;6.914;2024-03-06T08:35:13;5.70;99.90
52725;DHT22;38621;52.830;6.914;2024-03-06T08:37:42;5.70;99.90
52725;DHT22;38621;52.830;6.914;2024-03-06T08:40:09;5.80;99.90
52725;DHT22;38621;52.830;6.914;2024-03-06T08:42:41;5.80;99.90
52725;DHT22;38621;52.830;6.914;2024-03-06T08:45:10;5.80;99.90
52725;DHT22;38621;52.830;6.914;2024-03-06T08:47:36;6.10;99.90
52725;DHT22;38621;52.830;6.914;2024-03-06T08:50:03;5.90;99.90
52725;DHT22;38621;52.830;6.914;2024-03-06T08:52:29;5.90;99.90
52725;DHT22;38621;52.830;6.914;2024-03-06T08:55:22;6.00;99.90
52725;DHT22;38621;52.830;6.914;2024-03-06T08:58:45;5.90;99.90
52725;DHT22;38621;52.830;6.914;2024-03-06T09:01:11;6.00;99.90
52725;DHT22;38621;52.830;6.914;2024-03-06T09:03:38;6.10;99.90
52725;DHT22;38621;52.830;6.914;2024-03-06T09:06:03;6.00;99.90
52725;DHT22;38621;52.830;6.914;2024-03-06T09:08:33;6.00;99.90
52725;DHT22;38621;52.830;6.914;2024-03-06T09:10:58;6.10;99.90
52725;DHT22;38621;52.830;6.914;2024-03-06T09:13:26;6.20;99.90
52725;DHT22;38621;52.830;6.914;2024-03-06T09:15:58;6.20;99.90
52725;DHT22;38621;52.830;6.914;2024-03-06T09:18:27;6.20;99.90
52725;DHT22;38621;52.830;6.914;2024-03-06T09:20:53;6.30;99.90
52725;DHT22;38621;52.830;6.914;2024-03-06T09:23:18;6.30;99.90
52725;DHT22;38621;52.830;6.914;2024-03-06T09:25:44;6.30;99.90
52725;DHT22;38621;52.830;6.914;2024-03-06T09:28:11;6.30;99.90
52725;DHT22;38621;52.830;6.914;2024-03-06T09:30:36;6.30;99.90
52725;DHT22;38621;52.830;6.914;2024-03-06T09:33:02;6.30;99.90
52725;DHT22;38621;52.830;6.914;2024-03-06T09:35:28;6.30;99.90
52725;DHT22;38621;52.830;6.914;2024-03-06T09:37:53;6.30;99.90
52725;DHT22;38621;52.830;6.914;2024-03-06T09:40:43;6.30;99.90
52725;DHT22;38621;52.830;6.914;2024-03-06T09:43:16;6.80;99.90
52725;DHT22;38621;52.830;6.914;2024-03-06T09:45:47;6.30;99.90
52725;DHT22;38621;52.830;6.914;2024-03-06T09:48:13;6.40;99.90
52725;DHT22;38621;52.830;6.914;2024-03-06T09:50:43;6.40;99.90
52725;DHT22;38621;52.830;6.914;2024-03-06T09:53:12;6.60;99.90
52725;DHT22;38621;52.830;6.914;2024-03-06T09:55:41;6.60;99.90
52725;DHT22;38621;52.830;6.914;2024-03-06T09:58:07;6.50;99.90
52725;DHT22;38621;52.830;6.914;2024-03-06T10:00:37;6.60;99.90
52725;DHT22;38621;52.830;6.914;2024-03-06T10:03:03;6.60;99.90
52725;DHT22;38621;52.830;6.914;2024-03-06T10:05:34;6.70;99.90
52725;DHT22;38621;52.830;6.914;2024-03-06T10:08:02;6.70;99.90
52725;DHT22;38621;52.830;6.914;2024-03-06T10:10:30;6.70;99.90
52725;DHT22;38621;52.830;6.914;2024-03-06T10:12:55;6.80;99.90
52725;DHT22;38621;52.830;6.914;2024-03-06T10:15:28;6.80;99.90
52725;DHT22;38621;52.830;6.914;2024-03-06T10:18:15;6.80;99.90
52725;DHT22;38621;52.830;6.914;2024-03-06T10:20:48;7.00;99.90
52725;DHT22;38621;52.830;6.914;2024-03-06T10:23:57;7.10;99.90
52725;DHT22;38621;52.830;6.914;2024-03-06T10:26:25;7.20;99.90
52725;DHT22;38621;52.830;6.914;2024-03-06T10:28:50;7.30;99.90
52725;DHT22;38621;52.830;6.914;2024-03-06T10:31:27;7.30;99.90
52725;DHT22;38621;52.830;6.914;2024-03-06T10:33:53;7.30;99.90
52725;DHT22;38621;52.830;6.914;2024-03-06T10:36:19;7.40;99.90
52725;DHT22;38621;52.830;6.914;2024-03-06T10:38:47;7.50;99.90
52725;DHT22;38621;52.830;6.914;2024-03-06T10:41:14;7.50;99.90
52725;DHT22;38621;52.830;6.914;2024-03-06T10:43:42;7.60;99.90
52725;DHT22;38621;52.830;6.914;2024-03-06T10:46:11;7.60;99.90
52725;DHT22;38621;52.830;6.914;2024-03-06T10:48:38;7.70;99.90
52725;DHT22;38621;52.830;6.914;2024-03-06T10:51:05;7.70;99.90
52725;DHT22;38621;52.830;6.914;2024-03-06T10:53:34;7.80;99.90
52725;DHT22;38621;52.830;6.914;2024-03-06T10:56:02;7.80;99.90
52725;DHT22;38621;52.830;6.914;2024-03-06T10:58:29;7.70;99.90
52725;DHT22;38621;52.830;6.914;2024-03-06T11:00:56;7.70;99.90
52725;DHT22;38621;52.830;6.914;2024-03-06T11:03:23;7.70;99.90
52725;DHT22;38621;52.830;6.914;2024-03-06T11:05:51;7.60;99.90
52725;DHT22;38621;52.830;6.914;2024-03-06T11:08:17;7.60;99.90
52725;DHT22;38621;52.830;6.914;2024-03-06T11:10:43;7.60;99.90
52725;DHT22;38621;52.830;6.914;2024-03-06T11:13:23;7.60;99.90
52725;DHT22;38621;52.830;6.914;2024-03-06T11:15:52;7.60;99.90
52725;DHT22;38621;52.830;6.914;2024-03-06T11:18:51;7.50;99.90
52725;DHT22;38621;52.830;6.914;2024-03-06T11:21:30;7.60;99.90
52725;DHT22;38621;52.830;6.914;2024-03-06T11:24:14;7.50;99.90
52725;DHT22;38621;52.830;6.914;2024-03-06T11:27:07;7.60;99.90
52725;DHT22;38621;52.830;6.914;2024-03-06T11:30:25;7.60;99.90
52725;DHT22;38621;52.830;6.914;2024-03-06T11:33:00;7.60;99.90
52725;DHT22;38621;52.830;6.914;2024-03-06T11:35:29;7.70;99.90
52725;DHT22;38621;52.830;6.914;2024-03-06T11:37:55;7.70;99.90
52725;DHT22;38621;52.830;6.914;2024-03-06T11:40:25;7.80;99.90
52725;DHT22;38621;52.830;6.914;2024-03-06T11:42:51;7.80;99.90
52725;DHT22;38621;52.830;6.914;2024-03-06T11:45:18;7.80;99.90
52725;DHT22;38621;52.830;6.914;2024-03-06T11:48:01;7.90;99.90
52725;DHT22;38621;52.830;6.914;2024-03-06T11:50:28;8.00;99.90
52725;DHT22;38621;52.830;6.914;2024-03-06T11:52:55;8.10;99.90
52725;DHT22;38621;52.830;6.914;2024-03-06T11:55:22;8.10;99.90
52725;DHT22;38621;52.830;6.914;2024-03-06T11:57:48;8.10;99.90
52725;DHT22;38621;52.830;6.914;2024-03-06T12:00:14;8.20;99.90
52725;DHT22;38621;52.830;6.914;2024-03-06T12:02:40;8.30;99.90
52725;DHT22;38621;52.830;6.914;2024-03-06T12:05:07;8.40;99.90
52725;DHT22;38621;52.830;6.914;2024-03-06T12:07:46;8.50;99.90
52725;DHT22;38621;52.830;6.914;2024-03-06T12:10:12;8.50;99.90
52725;DHT22;38621;52.830;6.914;2024-03-06T12:12:37;8.60;99.90
52725;DHT22;38621;52.830;6.914;2024-03-06T12:15:03;8.60;99.90
52725;DHT22;38621;52.830;6.914;2024-03-06T12:17:30;8.70;99.90
52725;DHT22;38621;52.830;6.914;2024-03-06T12:19:56;8.70;99.90
52725;DHT22;38621;52.830;6.914;2024-03-06T12:22:25;8.80;99.90
52725;DHT22;38621;52.830;6.914;2024-03-06T12:24:59;8.70;99.90
52725;DHT22;38621;52.830;6.914;2024-03-06T12:27:25;8.80;99.90
52725;DHT22;38621;52.830;6.914;2024-03-06T12:29:53;8.80;99.90
52725;DHT22;38621;52.830;6.914;2024-03-06T12:32:19;8.90;99.90
52725;DHT22;38621;52.830;6.914;2024-03-06T12:34:45;9.00;99.90
52725;DHT22;38621;52.830;6.914;2024-03-06T12:37:28;9.00;99.90
52725;DHT22;38621;52.830;6.914;2024-03-06T12:39:55;9.10;99.90
52725;DHT22;38621;52.830;6.914;2024-03-06T12:42:21;9.20;99.90
52725;DHT22;38621;52.830;6.914;2024-03-06T12:44:47;9.20;99.90
52725;DHT22;38621;52.830;6.914;2024-03-06T12:47:13;9.30;99.90
52725;DHT22;38621;52.830;6.914;2024-03-06T12:49:39;9.30;99.90
52725;DHT22;38621;52.830;6.914;2024-03-06T12:52:05;9.30;99.90
52725;DHT22;38621;52.830;6.914;2024-03-06T12:54:31;9.30;99.90
52725;DHT22;38621;52.830;6.914;2024-03-06T12:56:56;9.30;99.90
52725;DHT22;38621;52.830;6.914;2024-03-06T12:59:22;9.30;99.90
52725;DHT22;38621;52.830;6.914;2024-03-06T13:01:48;9.30;99.90
52725;DHT22;38621;52.830;6.914;2024-03-06T13:04:14;9.30;99.90
52725;DHT22;38621;52.830;6.914;2024-03-06T13:06:39;9.30;99.90
52725;DHT22;38621;52.830;6.914;2024-03-06T13:09:08;9.40;99.90
52725;DHT22;38621;52.830;6.914;2024-03-06T13:11:33;9.40;99.90
52725;DHT22;38621;52.830;6.914;2024-03-06T13:13:59;9.50;99.90
52725;DHT22;38621;52.830;6.914;2024-03-06T13:16:26;9.60;99.90
52725;DHT22;38621;52.830;6.914;2024-03-06T13:18:52;9.80;99.90
52725;DHT22;38621;52.830;6.914;2024-03-06T13:21:20;9.90;99.90
52725;DHT22;38621;52.830;6.914;2024-03-06T13:23:46;10.00;99.90
52725;DHT22;38621;52.830;6.914;2024-03-06T13:26:11;10.10;99.90
52725;DHT22;38621;52.830;6.914;2024-03-06T13:28:39;10.20;99.90
52725;DHT22;38621;52.830;6.914;2024-03-06T13:31:05;10.30;99.90
52725;DHT22;38621;52.830;6.914;2024-03-06T13:33:33;10.50;99.90
52725;DHT22;38621;52.830;6.914;2024-03-06T13:35:59;10.60;99.90
52725;DHT22;38621;52.830;6.914;2024-03-06T13:38:25;10.80;99.90
52725;DHT22;38621;52.830;6.914;2024-03-06T13:40:50;10.90;99.90
52725;DHT22;38621;52.830;6.914;2024-03-06T13:43:16;10.90;99.90
52725;DHT22;38621;52.830;6.914;2024-03-06T13:45:49;11.00;99.90
52725;DHT22;38621;52.830;6.914;2024-03-06T13:48:18;11.20;99.90
52725;DHT22;38621;52.830;6.914;2024-03-06T13:50:44;11.40;99.90
52725;DHT22;38621;52.830;6.914;2024-03-06T13:53:11;11.60;99.90
52725;DHT22;38621;52.830;6.914;2024-03-06T13:55:37;11.70;99.90
52725;DHT22;38621;52.830;6.914;2024-03-06T13:58:03;11.60;99.90
52725;DHT22;38621;52.830;6.914;2024-03-06T14:00:28;11.60;99.90
52725;DHT22;38621;52.830;6.914;2024-03-06T14:02:55;11.50;99.90
52725;DHT22;38621;52.830;6.914;2024-03-06T14:05:21;11.50;99.90
52725;DHT22;38621;52.830;6.914;2024-03-06T14:07:53;11.70;99.90
52725;DHT22;38621;52.830;6.914;2024-03-06T14:10:21;11.80;99.90
52725;DHT22;38621;52.830;6.914;2024-03-06T14:12:48;11.70;99.90
52725;DHT22;38621;52.830;6.914;2024-03-06T14:15:18;11.40;99.90
52725;DHT22;38621;52.830;6.914;2024-03-06T14:17:44;11.20;99.90
52725;DHT22;38621;52.830;6.914;2024-03-06T14:20:11;11.00;99.90
52725;DHT22;38621;52.830;6.914;2024-03-06T14:22:41;10.90;99.90
52725;DHT22;38621;52.830;6.914;2024-03-06T14:25:08;10.80;99.90
52725;DHT22;38621;52.830;6.914;2024-03-06T14:27:33;10.80;99.90
52725;DHT22;38621;52.830;6.914;2024-03-06T14:30:01;10.80;99.90
52725;DHT22;38621;52.830;6.914;2024-03-06T14:32:28;10.90;99.90
52725;DHT22;38621;52.830;6.914;2024-03-06T14:34:53;10.90;99.90
52725;DHT22;38621;52.830;6.914;2024-03-06T14:37:19;10.90;99.90
52725;DHT22;38621;52.830;6.914;2024-03-06T14:39:45;10.80;99.90
52725;DHT22;38621;52.830;6.914;2024-03-06T14:42:11;10.90;99.90
52725;DHT22;38621;52.830;6.914;2024-03-06T14:44:37;10.90;99.90
52725;DHT22;38621;52.830;6.914;2024-03-06T14:47:02;10.90;99.90
52725;DHT22;38621;52.830;6.914;2024-03-06T14:49:28;10.80;99.90
52725;DHT22;38621;52.830;6.914;2024-03-06T14:51:54;10.80;99.90
52725;DHT22;38621;52.830;6.914;2024-03-06T14:54:21;10.70;99.90
52725;DHT22;38621;52.830;6.914;2024-03-06T14:56:48;10.80;99.90
52725;DHT22;38621;52.830;6.914;2024-03-06T14:59:14;10.80;99.90
52725;DHT22;38621;52.830;6.914;2024-03-06T15:01:40;10.80;99.90
52725;DHT22;38621;52.830;6.914;2024-03-06T15:04:05;10.90;99.90
52725;DHT22;38621;52.830;6.914;2024-03-06T15:06:31;11.00;99.90
52725;DHT22;38621;52.830;6.914;2024-03-06T15:08:57;11.00;99.90
52725;DHT22;38621;52.830;6.914;2024-03-06T15:11:22;11.00;99.90
52725;DHT22;38621;52.830;6.914;2024-03-06T15:13:49;11.00;99.90
52725;DHT22;38621;52.830;6.914;2024-03-06T15:16:16;11.20;99.90
52725;DHT22;38621;52.830;6.914;2024-03-06T15:18:42;11.10;99.90
52725;DHT22;38621;52.830;6.914;2024-03-06T15:21:09;11.10;99.90
52725;DHT22;38621;52.830;6.914;2024-03-06T15:23:35;11.10;99.90
52725;DHT22;38621;52.830;6.914;2024-03-06T15:26:01;11.10;99.90
52725;DHT22;38621;52.830;6.914;2024-03-06T15:28:26;11.20;99.90
52725;DHT22;38621;52.830;6.914;2024-03-06T15:30:52;11.30;99.90
52725;DHT22;38621;52.830;6.914;2024-03-06T15:33:18;11.30;99.90
52725;DHT22;38621;52.830;6.914;2024-03-06T15:35:44;11.40;99.90
52725;DHT22;38621;52.830;6.914;2024-03-06T15:38:10;11.30;99.90
52725;DHT22;38621;52.830;6.914;2024-03-06T15:40:36;11.30;99.90
52725;DHT22;38621;52.830;6.914;2024-03-06T15:43:02;11.20;99.90
52725;DHT22;38621;52.830;6.914;2024-03-06T15:45:30;11.10;99.90
52725;DHT22;38621;52.830;6.914;2024-03-06T15:47:56;11.00;99.90